Time;durP1;ratioP1;P1;durP2;ratioP2;P2;SDS_P1;SDS_P2;PMS_P1;PMS_P2;Temp;Humidity;BMP_temperature;BMP_pressure;BME280_temperature;BME280_humidity;BME280_pressure;Samples;Min_cycle;Max_cycle;Signal;HPM_P1;HPM_P2
2022/11/12 00:02:10;;;;;;;0.00;0.00;;;15.70;92.50;;;;;;4260005;27;20381;-60
2022/11/12 00:05:09;;;;;;;1.05;1.05;;;15.70;92.60;;;;;;4259280;27;20067;-61
2022/11/12 00:08:11;;;;;;;0.10;0.10;;;15.70;92.90;;;;;;4254762;27;20414;-61
2022/11/12 00:11:10;;;;;;;0.98;0.98;;;15.70;92.60;;;;;;4241468;27;20054;-61
2022/11/12 00:14:10;;;;;;;0.00;0.00;;;15.70;92.60;;;;;;4219460;27;20050;-61
2022/11/12 00:17:09;;;;;;;0.00;0.00;;;15.70;92.60;;;;;;4224635;28;20132;-61
2022/11/12 00:20:10;;;;;;;0.00;0.00;;;15.70;92.70;;;;;;4225035;27;20422;-61
2022/11/12 00:23:11;;;;;;;0.00;0.00;;;15.60;92.70;;;;;;4225079;27;20103;-61
2022/11/12 00:26:10;;;;;;;0.00;0.00;;;15.60;92.70;;;;;;4225103;27;20066;-61
2022/11/12 00:29:10;;;;;;;0.10;0.10;;;15.60;92.70;;;;;;4248613;27;20574;-61
2022/11/12 00:32:10;;;;;;;0.10;0.10;;;15.60;92.80;;;;;;4258794;27;20057;-60
2022/11/12 00:35:11;;;;;;;0.60;0.60;;;15.60;92.80;;;;;;4224480;27;20190;-61
2022/11/12 00:38:13;;;;;;;0.00;0.00;;;15.60;92.80;;;;;;4231235;27;20080;-61
2022/11/12 00:41:13;;;;;;;0.00;0.00;;;15.50;92.80;;;;;;4258756;27;20050;-60
2022/11/12 00:44:12;;;;;;;0.00;0.00;;;15.50;92.80;;;;;;4258330;27;20074;-61
2022/11/12 00:47:12;;;;;;;0.00;0.00;;;15.50;92.80;;;;;;4233269;28;20118;-61
2022/11/12 00:50:11;;;;;;;2.83;2.33;;;15.50;92.80;;;;;;4241258;28;20091;-61
2022/11/12 00:53:13;;;;;;;0.55;0.55;;;15.50;92.80;;;;;;4241121;28;20046;-61
2022/11/12 00:56:13;;;;;;;0.00;0.00;;;15.50;93.20;;;;;;4241401;27;20062;-62
2022/11/12 00:59:13;;;;;;;0.00;0.00;;;15.50;92.90;;;;;;4233425;27;20085;-61
2022/11/12 01:02:13;;;;;;;0.00;0.00;;;15.50;92.90;;;;;;4241279;28;20481;-60
2022/11/12 01:05:12;;;;;;;0.00;0.00;;;15.40;92.90;;;;;;4241754;27;20096;-61
2022/11/12 01:08:13;;;;;;;0.00;0.00;;;15.40;92.90;;;;;;4255088;27;20138;-60
2022/11/12 01:11:15;;;;;;;0.00;0.00;;;15.40;92.90;;;;;;4258532;27;20049;-61
2022/11/12 01:14:14;;;;;;;1.00;1.00;;;15.40;92.90;;;;;;4258597;27;20294;-61
2022/11/12 01:17:14;;;;;;;0.00;0.00;;;15.40;92.90;;;;;;4238437;27;20069;-61
2022/11/12 01:20:13;;;;;;;0.00;0.00;;;15.40;92.90;;;;;;4258409;27;20509;-60
2022/11/12 01:23:14;;;;;;;0.40;0.40;;;15.40;93.00;;;;;;4256865;27;20405;-61
2022/11/12 01:26:17;;;;;;;0.00;0.00;;;15.40;93.00;;;;;;4258899;27;20508;-60
2022/11/12 01:29:16;;;;;;;1.08;1.00;;;15.40;93.00;;;;;;4227583;28;20101;-61
2022/11/12 01:32:16;;;;;;;0.00;0.00;;;15.30;93.00;;;;;;4227378;28;20055;-61
2022/11/12 01:35:16;;;;;;;0.73;0.47;;;15.40;93.00;;;;;;4227522;28;20050;-61
2022/11/12 01:38:17;;;;;;;0.32;0.32;;;15.40;93.00;;;;;;4259459;27;20050;-61
2022/11/12 01:41:19;;;;;;;1.60;0.67;;;15.40;93.10;;;;;;4259570;27;20060;-60
2022/11/12 01:44:20;;;;;;;0.00;0.00;;;15.30;93.00;;;;;;4261102;27;20057;-60
2022/11/12 01:47:23;;;;;;;0.10;0.10;;;15.30;93.50;;;;;;4244202;27;20496;-60
2022/11/12 01:50:26;;;;;;;0.00;0.00;;;15.30;93.10;;;;;;4242697;27;20089;-61
2022/11/12 01:53:30;;;;;;;0.00;0.00;;;15.30;93.10;;;;;;4243764;27;20050;-60
2022/11/12 01:56:31;;;;;;;0.00;0.00;;;15.30;93.10;;;;;;4226394;28;20466;-61
2022/11/12 01:59:37;;;;;;;0.00;0.00;;;15.30;93.10;;;;;;4235292;27;20051;-61
2022/11/12 02:02:37;;;;;;;0.45;0.45;;;15.30;93.10;;;;;;4231412;27;20081;-61
2022/11/12 02:05:38;;;;;;;0.63;0.63;;;15.30;93.10;;;;;;4243528;27;20489;-61
2022/11/12 02:08:41;;;;;;;0.00;0.00;;;15.30;93.10;;;;;;4210631;28;20075;-60
2022/11/12 02:11:40;;;;;;;1.25;1.20;;;15.20;93.10;;;;;;4210279;27;20449;-60
2022/11/12 02:14:39;;;;;;;0.32;0.32;;;15.20;93.10;;;;;;4211173;28;20391;-60
2022/11/12 02:17:39;;;;;;;0.00;0.00;;;15.20;93.10;;;;;;4248538;27;20215;-61
2022/11/12 02:20:39;;;;;;;0.40;0.40;;;15.20;93.10;;;;;;4260809;27;20060;-61
2022/11/12 02:23:40;;;;;;;0.00;0.00;;;15.20;93.50;;;;;;4260776;27;20093;-60
2022/11/12 02:26:43;;;;;;;0.00;0.00;;;15.20;93.10;;;;;;4259406;27;20508;-61
2022/11/12 02:29:46;;;;;;;0.00;0.00;;;15.20;93.20;;;;;;4243054;27;20458;-61
2022/11/12 02:32:45;;;;;;;0.00;0.00;;;15.20;93.20;;;;;;4244788;27;20054;-61
2022/11/12 02:35:45;;;;;;;0.05;0.05;;;15.10;93.20;;;;;;4243151;27;20886;-61
2022/11/12 02:38:46;;;;;;;0.00;0.00;;;15.20;93.20;;;;;;4206590;28;20050;-61
2022/11/12 02:41:46;;;;;;;0.47;0.47;;;15.10;93.20;;;;;;4226452;27;20051;-61
2022/11/12 02:44:45;;;;;;;0.00;0.00;;;15.10;93.20;;;;;;4227373;27;20889;-61
2022/11/12 02:47:45;;;;;;;0.20;0.20;;;15.10;93.20;;;;;;4232706;27;20055;-61
2022/11/12 02:50:44;;;;;;;0.05;0.05;;;15.10;93.20;;;;;;4258336;27;20405;-61
2022/11/12 02:53:45;;;;;;;0.00;0.00;;;15.10;93.20;;;;;;4259923;27;20106;-61
2022/11/12 02:56:45;;;;;;;0.00;0.00;;;15.10;93.20;;;;;;4243803;27;20394;-61
2022/11/12 02:59:45;;;;;;;0.00;0.00;;;15.10;93.20;;;;;;4242767;27;20100;-60
2022/11/12 03:02:57;;;;;;;0.00;0.00;;;15.10;93.20;;;;;;4242724;27;20054;-61
2022/11/12 03:05:59;;;;;;;0.08;0.08;;;15.10;93.20;;;;;;4251951;27;20058;-61
2022/11/12 03:09:00;;;;;;;0.25;0.25;;;15.10;93.30;;;;;;4260263;27;20154;-61
2022/11/12 03:11:59;;;;;;;0.00;0.00;;;15.00;93.20;;;;;;4259349;27;20046;-60
2022/11/12 03:14:59;;;;;;;0.00;0.00;;;15.00;93.60;;;;;;4256126;27;20105;-61
2022/11/12 03:17:59;;;;;;;0.20;0.20;;;15.00;93.20;;;;;;4225883;28;20054;-60
2022/11/12 03:20:58;;;;;;;0.10;0.10;;;15.00;93.20;;;;;;4213140;27;20100;-60
2022/11/12 03:23:57;;;;;;;0.00;0.00;;;15.00;93.20;;;;;;4241237;27;20054;-61
2022/11/12 03:26:58;;;;;;;0.00;0.00;;;15.00;93.30;;;;;;4257039;27;20186;-61
2022/11/12 03:29:58;;;;;;;0.80;0.80;;;15.00;93.30;;;;;;4259646;27;20073;-60
2022/11/12 03:32:57;;;;;;;0.70;0.70;;;15.00;93.30;;;;;;4259821;27;20138;-61
2022/11/12 03:35:57;;;;;;;0.00;0.00;;;15.00;93.30;;;;;;4251612;27;20054;-61
2022/11/12 03:38:56;;;;;;;0.00;0.00;;;15.00;93.30;;;;;;4242659;27;20450;-61
2022/11/12 03:41:56;;;;;;;0.00;0.00;;;14.90;93.30;;;;;;4224058;28;20055;-61
2022/11/12 03:44:56;;;;;;;0.00;0.00;;;15.00;93.30;;;;;;4228108;27;20209;-61
2022/11/12 03:47:57;;;;;;;0.00;0.00;;;15.00;93.40;;;;;;4225331;27;20058;-61
2022/11/12 03:50:58;;;;;;;0.00;0.00;;;14.90;93.30;;;;;;4225323;27;20063;-61
2022/11/12 03:53:57;;;;;;;0.00;0.00;;;15.00;93.70;;;;;;4224758;28;20150;-61
2022/11/12 03:56:57;;;;;;;0.00;0.00;;;15.00;93.30;;;;;;4240315;27;20091;-61
2022/11/12 03:59:58;;;;;;;0.05;0.05;;;14.90;93.30;;;;;;4224738;28;20047;-61
2022/11/12 04:02:58;;;;;;;0.00;0.00;;;14.90;93.30;;;;;;4224571;27;20051;-61
2022/11/12 04:09:15;;;;;;;0.17;0.17;;;14.90;93.30;;;;;;4259064;27;20077;-61
2022/11/12 04:15:29;;;;;;;0.03;0.03;;;14.90;93.80;;;;;;4237772;27;20046;-61
2022/11/12 04:21:50;;;;;;;1.33;1.30;;;15.00;93.10;;;;;;4258946;27;20680;-62
2022/11/12 04:28:06;;;;;;;0.05;0.05;;;15.10;92.90;;;;;;4225238;28;20055;-61
2022/11/12 04:31:06;;;;;;;0.00;0.00;;;15.10;92.80;;;;;;4225056;28;20051;-61
2022/11/12 04:37:19;;;;;;;1.65;1.55;;;15.10;92.70;;;;;;4256313;27;20504;-61
2022/11/12 04:46:59;;;;;;;0.00;0.00;;;15.10;92.70;;;;;;4239178;27;20485;-61
2022/11/12 04:49:58;;;;;;;0.30;0.30;;;15.10;92.70;;;;;;4241677;27;20062;-61
2022/11/12 04:52:58;;;;;;;0.45;0.45;;;15.00;92.70;;;;;;4241256;28;20150;-61
2022/11/12 04:55:59;;;;;;;0.00;0.00;;;15.00;92.80;;;;;;4224280;28;20402;-61
2022/11/12 04:58:58;;;;;;;0.32;0.32;;;14.90;92.90;;;;;;4258914;27;20068;-60
2022/11/12 05:01:59;;;;;;;0.20;0.20;;;14.90;92.90;;;;;;4259623;27;20105;-60
2022/11/12 05:04:58;;;;;;;0.00;0.00;;;14.90;93.00;;;;;;4262256;27;20054;-61
2022/11/12 05:08:00;;;;;;;0.00;0.00;;;14.90;93.00;;;;;;4234632;27;20959;-60
2022/11/12 05:10:59;;;;;;;0.32;0.32;;;14.90;93.10;;;;;;4244428;27;20078;-61
2022/11/12 05:13:59;;;;;;;0.85;0.85;;;14.80;93.10;;;;;;4249837;27;20142;-60
2022/11/12 05:17:00;;;;;;;0.10;0.10;;;14.80;93.10;;;;;;4227760;27;20077;-60
2022/11/12 05:19:59;;;;;;;0.00;0.00;;;14.80;93.10;;;;;;4228266;27;20062;-60
2022/11/12 05:22:59;;;;;;;0.00;0.00;;;14.90;93.00;;;;;;4228282;27;20089;-61
2022/11/12 05:26:06;;;;;;;0.30;0.30;;;14.90;92.90;;;;;;4238517;27;20487;-60
2022/11/12 05:29:06;;;;;;;6.32;2.05;;;14.90;92.80;;;;;;4227512;28;20562;-60
2022/11/12 05:32:10;;;;;;;0.20;0.20;;;14.90;92.80;;;;;;4244206;27;20050;-60
2022/11/12 05:35:10;;;;;;;0.50;0.50;;;15.00;92.80;;;;;;4227112;28;20050;-60
2022/11/12 05:38:09;;;;;;;0.13;0.13;;;15.00;92.70;;;;;;4210238;28;20096;-60
2022/11/12 05:41:09;;;;;;;0.10;0.10;;;15.10;92.60;;;;;;4227043;28;20069;-59
2022/11/12 05:44:08;;;;;;;0.10;0.10;;;15.10;92.40;;;;;;4226775;27;20418;-60
2022/11/12 05:47:10;;;;;;;2.00;0.65;;;15.20;92.30;;;;;;4243993;27;20134;-60
2022/11/12 05:50:09;;;;;;;0.00;0.00;;;15.20;92.20;;;;;;4243062;27;20275;-60
2022/11/12 05:53:09;;;;;;;0.00;0.00;;;15.20;92.20;;;;;;4257125;27;20179;-60
2022/11/12 05:56:10;;;;;;;0.00;0.00;;;15.20;92.10;;;;;;4243377;27;20072;-60
2022/11/12 05:59:12;;;;;;;0.00;0.00;;;15.30;92.10;;;;;;4243009;27;20078;-60
2022/11/12 06:02:13;;;;;;;0.00;0.00;;;15.30;92.00;;;;;;4231150;27;20077;-60
2022/11/12 06:05:12;;;;;;;0.15;0.15;;;15.30;91.90;;;;;;4227088;27;20071;-60
2022/11/12 06:08:13;;;;;;;0.00;0.00;;;15.30;91.90;;;;;;4240237;27;20071;-60
2022/11/12 06:11:12;;;;;;;0.00;0.00;;;15.30;91.90;;;;;;4243996;27;20386;-59
2022/11/12 06:14:12;;;;;;;0.82;0.52;;;15.20;91.90;;;;;;4243080;27;20058;-60
2022/11/12 06:17:13;;;;;;;0.00;0.00;;;15.20;91.90;;;;;;4244259;27;20450;-60
2022/11/12 06:20:13;;;;;;;0.57;0.57;;;15.20;91.90;;;;;;4260859;27;20064;-60
2022/11/12 06:23:12;;;;;;;0.60;0.60;;;15.20;92.00;;;;;;4257371;27;20138;-60
2022/11/12 06:26:13;;;;;;;0.00;0.00;;;15.20;92.00;;;;;;4243134;27;20099;-60
2022/11/12 06:29:12;;;;;;;0.00;0.00;;;15.20;92.00;;;;;;4226885;28;20085;-60
2022/11/12 06:32:13;;;;;;;0.05;0.05;;;15.30;91.80;;;;;;4243002;27;20085;-60
2022/11/12 06:35:13;;;;;;;0.20;0.20;;;15.30;91.70;;;;;;4226425;27;20050;-60
2022/11/12 06:38:12;;;;;;;0.00;0.00;;;15.30;91.70;;;;;;4226308;27;20600;-60
2022/11/12 06:41:13;;;;;;;0.75;0.75;;;15.30;91.70;;;;;;4226055;27;20058;-62
2022/11/12 06:44:12;;;;;;;0.17;0.17;;;15.50;91.50;;;;;;4248997;27;20064;-61
2022/11/12 06:47:17;;;;;;;0.73;0.57;;;15.60;91.40;;;;;;4226407;28;20104;-60
2022/11/12 06:50:17;;;;;;;0.20;0.20;;;15.70;91.00;;;;;;4242842;27;20529;-61
2022/11/12 06:53:16;;;;;;;0.10;0.10;;;15.70;90.30;;;;;;4238207;27;20070;-61
2022/11/12 06:56:16;;;;;;;0.10;0.10;;;15.80;90.30;;;;;;4248621;27;20057;-61
2022/11/12 06:59:16;;;;;;;0.52;0.35;;;15.70;90.20;;;;;;4225821;28;20050;-61
2022/11/12 07:02:16;;;;;;;0.00;0.00;;;15.70;90.10;;;;;;4226500;28;20054;-61
2022/11/12 07:05:16;;;;;;;4.93;2.53;;;15.70;90.10;;;;;;4225759;28;20046;-61
2022/11/12 07:08:16;;;;;;;0.65;0.50;;;15.70;90.20;;;;;;4228725;27;20100;-62
2022/11/12 07:11:16;;;;;;;0.00;0.00;;;15.70;90.20;;;;;;4240321;27;20050;-61
2022/11/12 07:14:15;;;;;;;0.63;0.55;;;15.70;90.30;;;;;;4259213;27;20102;-61
2022/11/12 07:17:17;;;;;;;0.00;0.00;;;15.60;90.40;;;;;;4223741;28;20051;-62
2022/11/12 07:20:17;;;;;;;0.40;0.40;;;15.60;90.50;;;;;;4238496;27;20050;-61
2022/11/12 07:23:16;;;;;;;0.30;0.30;;;15.50;90.60;;;;;;4259549;27;20504;-61
2022/11/12 07:26:17;;;;;;;0.60;0.60;;;15.50;90.70;;;;;;4259904;27;20102;-61
2022/11/12 07:29:17;;;;;;;0.40;0.40;;;15.40;90.80;;;;;;4246731;27;20090;-61
2022/11/12 07:32:35;;;;;;;0.00;0.00;;;15.40;90.80;;;;;;4240330;27;20054;-61
2022/11/12 07:35:41;;;;;;;0.57;0.57;;;15.30;91.00;;;;;;4242294;27;20054;-60
2022/11/12 07:38:42;;;;;;;0.00;0.00;;;15.30;91.10;;;;;;4240660;27;20080;-59
2022/11/12 07:41:41;;;;;;;0.00;0.00;;;15.30;91.00;;;;;;4241906;27;20176;-59
2022/11/12 07:44:41;;;;;;;0.30;0.30;;;15.40;90.80;;;;;;4242025;27;20542;-59
2022/11/12 07:47:42;;;;;;;0.00;0.00;;;15.40;90.60;;;;;;4242514;27;20631;-59
2022/11/12 07:50:41;;;;;;;0.00;0.00;;;15.50;90.90;;;;;;4225535;27;20074;-59
2022/11/12 07:53:41;;;;;;;0.20;0.20;;;15.50;90.30;;;;;;4241016;27;20138;-59
2022/11/12 07:56:41;;;;;;;0.38;0.38;;;15.50;90.20;;;;;;4225405;28;20410;-59
2022/11/12 07:59:40;;;;;;;0.05;0.05;;;15.60;90.10;;;;;;4255130;27;20206;-59
2022/11/12 08:02:45;;;;;;;0.00;0.00;;;15.60;90.00;;;;;;4258880;27;20077;-59
2022/11/12 08:05:44;;;;;;;0.00;0.00;;;15.50;89.50;;;;;;4253489;27;20154;-60
2022/11/12 08:08:44;;;;;;;0.00;0.00;;;15.50;89.50;;;;;;4237717;27;20095;-59
2022/11/12 08:11:43;;;;;;;0.85;0.85;;;15.50;89.60;;;;;;4259255;27;20054;-60
2022/11/12 08:14:43;;;;;;;2.78;0.82;;;15.40;89.50;;;;;;4257937;27;20542;-60
2022/11/12 08:17:43;;;;;;;0.50;0.50;;;15.40;89.60;;;;;;4242523;27;21287;-59
2022/11/12 08:20:44;;;;;;;0.00;0.00;;;15.30;89.80;;;;;;4230941;27;20095;-59
2022/11/12 08:23:44;;;;;;;0.38;0.38;;;15.30;90.20;;;;;;4241368;27;20497;-59
2022/11/12 08:26:43;;;;;;;0.00;0.00;;;15.40;89.80;;;;;;4241390;27;20062;-59
2022/11/12 08:29:43;;;;;;;0.00;0.00;;;15.40;89.30;;;;;;4231242;27;20054;-59
2022/11/12 08:32:43;;;;;;;0.00;0.00;;;15.50;89.10;;;;;;4238583;27;20394;-59
2022/11/12 08:35:44;;;;;;;0.60;0.60;;;15.50;89.00;;;;;;4224712;28;20062;-59
2022/11/12 08:38:44;;;;;;;0.00;0.00;;;15.50;88.90;;;;;;4238400;27;20399;-60
2022/11/12 08:41:43;;;;;;;3.30;0.68;;;15.50;88.80;;;;;;4244722;27;20517;-59
2022/11/12 08:44:43;;;;;;;0.00;0.00;;;15.40;88.70;;;;;;4240165;27;20058;-60
2022/11/12 08:47:43;;;;;;;0.15;0.15;;;15.40;88.80;;;;;;4228418;28;20104;-60
2022/11/12 08:50:43;;;;;;;0.03;0.03;;;15.40;88.80;;;;;;4228640;27;20063;-60
2022/11/12 08:53:43;;;;;;;3.25;0.77;;;15.30;88.90;;;;;;4228180;27;20097;-62
2022/11/12 08:56:42;;;;;;;0.00;0.00;;;15.30;89.10;;;;;;4227475;27;20230;-60
2022/11/12 08:59:41;;;;;;;0.00;0.00;;;15.30;89.30;;;;;;4240776;27;20058;-62
2022/11/12 09:02:41;;;;;;;0.10;0.10;;;15.20;89.40;;;;;;4243239;27;20073;-61
2022/11/12 09:05:41;;;;;;;0.00;0.00;;;15.20;89.70;;;;;;4237765;27;20055;-60
2022/11/12 09:08:42;;;;;;;0.10;0.10;;;15.10;89.90;;;;;;4247053;27;20102;-62
2022/11/12 09:11:42;;;;;;;0.70;0.70;;;15.10;90.00;;;;;;4227445;27;20099;-61
2022/11/12 09:14:41;;;;;;;0.00;0.00;;;15.00;90.10;;;;;;4227121;27;20062;-61
2022/11/12 09:17:41;;;;;;;0.00;0.00;;;15.00;90.10;;;;;;4244395;27;20114;-61
2022/11/12 09:20:41;;;;;;;0.00;0.00;;;15.00;90.30;;;;;;4233233;27;20083;-62
2022/11/12 09:23:42;;;;;;;0.10;0.10;;;14.90;90.30;;;;;;4244454;27;20050;-62
2022/11/12 09:26:41;;;;;;;0.00;0.00;;;14.90;90.40;;;;;;4244418;27;20050;-61
2022/11/12 09:29:41;;;;;;;0.00;0.00;;;14.90;90.40;;;;;;4254689;27;20057;-61
2022/11/12 09:32:41;;;;;;;0.85;0.85;;;14.80;90.70;;;;;;4261861;27;20049;-61
2022/11/12 09:35:40;;;;;;;0.00;0.00;;;14.80;90.50;;;;;;4245859;27;20055;-61
2022/11/12 09:38:40;;;;;;;0.55;0.55;;;14.80;90.70;;;;;;4230478;27;20099;-61
2022/11/12 09:41:42;;;;;;;0.10;0.10;;;14.80;91.20;;;;;;4221241;27;20502;-61
2022/11/12 09:44:44;;;;;;;1.23;1.15;;;14.80;90.80;;;;;;4225350;28;20100;-61
2022/11/12 09:47:47;;;;;;;0.00;0.00;;;14.70;90.80;;;;;;4245573;27;20053;-61
2022/11/12 09:50:53;;;;;;;0.43;0.43;;;14.80;91.20;;;;;;4258493;27;20050;-61
2022/11/12 09:53:56;;;;;;;0.08;0.08;;;15.20;90.70;;;;;;4244009;27;20107;-60
2022/11/12 09:56:57;;;;;;;0.22;0.22;;;15.80;89.00;;;;;;4244056;27;20095;-61
2022/11/12 09:59:57;;;;;;;0.08;0.08;;;16.60;85.90;;;;;;4243651;27;20050;-61
2022/11/12 10:03:03;;;;;;;0.30;0.30;;;17.30;83.00;;;;;;4227271;28;20473;-62
2022/11/12 10:06:10;;;;;;;0.00;0.00;;;17.90;80.20;;;;;;4227203;28;20051;-62
2022/11/12 10:09:16;;;;;;;0.20;0.20;;;18.40;77.90;;;;;;4228917;27;20783;-60
2022/11/12 10:12:32;;;;;;;0.93;0.73;;;18.70;76.30;;;;;;4225693;28;20399;-60
2022/11/12 10:19:13;;;;;;;0.88;0.88;;;18.90;75.10;;;;;;4210032;27;20184;-62
2022/11/12 10:22:26;;;;;;;0.32;0.32;;;18.80;75.30;;;;;;4240486;27;20081;-62
2022/11/12 10:25:26;;;;;;;1.25;0.98;;;18.70;75.70;;;;;;4243528;27;20447;-61
2022/11/12 10:28:30;;;;;;;0.00;0.00;;;18.50;76.50;;;;;;4243147;27;20095;-62
2022/11/12 10:31:35;;;;;;;0.43;0.43;;;18.30;77.50;;;;;;4243696;27;20050;-62
2022/11/12 10:34:35;;;;;;;0.47;0.47;;;18.10;78.40;;;;;;4242725;27;20062;-62
2022/11/12 10:37:42;;;;;;;0.20;0.20;;;17.90;79.30;;;;;;4240840;27;20500;-61
2022/11/12 10:40:42;;;;;;;0.00;0.00;;;17.70;80.30;;;;;;4260488;27;20054;-61
2022/11/12 10:43:54;;;;;;;0.10;0.10;;;17.60;81.30;;;;;;4260504;27;20448;-62
2022/11/12 10:47:37;;;;;;;0.47;0.47;;;17.60;81.80;;;;;;4258827;27;20054;-62
2022/11/12 10:50:41;;;;;;;2.50;2.22;;;17.70;82.70;;;;;;4242843;27;20433;-62
2022/11/12 10:53:41;;;;;;;0.03;0.03;;;17.80;81.50;;;;;;4242972;27;20497;-62
2022/11/12 10:56:41;;;;;;;5.38;1.08;;;17.90;81.00;;;;;;4242383;27;20517;-62
2022/11/12 10:59:42;;;;;;;0.43;0.43;;;18.00;80.60;;;;;;4216446;27;20185;-62
2022/11/12 11:02:47;;;;;;;2.05;0.45;;;18.00;80.60;;;;;;4242726;27;20103;-61
2022/11/12 11:05:52;;;;;;;1.77;1.63;;;18.00;80.70;;;;;;4244185;27;20053;-62
2022/11/12 11:08:52;;;;;;;0.00;0.00;;;17.90;80.80;;;;;;4226707;27;20066;-62
2022/11/12 11:11:53;;;;;;;0.43;0.43;;;17.90;81.20;;;;;;4243000;27;20443;-62
2022/11/12 11:15:08;;;;;;;0.68;0.68;;;17.80;81.50;;;;;;4210859;28;20074;-62
2022/11/12 11:18:11;;;;;;;0.40;0.40;;;17.70;81.80;;;;;;4241957;27;20088;-62
2022/11/12 11:21:33;;;;;;;2.45;2.25;;;17.60;82.00;;;;;;4251570;27;20520;-61
2022/11/12 11:24:48;;;;;;;1.58;1.48;;;17.60;82.30;;;;;;4260011;27;20103;-62
2022/11/12 11:28:04;;;;;;;2.05;1.95;;;17.50;82.80;;;;;;4251364;27;20714;-61
2022/11/12 11:31:16;;;;;;;0.82;0.82;;;17.50;83.10;;;;;;4240515;27;20446;-61
2022/11/12 11:34:30;;;;;;;3.63;3.33;;;17.40;82.90;;;;;;4242430;27;20230;-60
2022/11/12 11:37:32;;;;;;;0.20;0.20;;;17.40;83.10;;;;;;4249824;27;20058;-60
2022/11/12 11:40:37;;;;;;;0.10;0.10;;;17.40;83.50;;;;;;4241867;27;20443;-61
2022/11/12 11:43:47;;;;;;;6.95;1.15;;;17.40;83.60;;;;;;4229601;27;20046;-61
2022/11/12 11:46:58;;;;;;;1.50;1.40;;;17.40;83.40;;;;;;4242852;27;20108;-61
2022/11/12 11:50:19;;;;;;;0.00;0.00;;;17.50;83.30;;;;;;4240415;27;20050;-61
2022/11/12 11:53:24;;;;;;;1.00;1.00;;;17.60;83.50;;;;;;4244325;27;20509;-61
2022/11/12 11:56:29;;;;;;;0.63;0.63;;;17.60;83.20;;;;;;4251450;27;20720;-61
2022/11/12 11:59:38;;;;;;;0.82;0.82;;;17.50;83.30;;;;;;4253773;27;20146;-61
2022/11/12 12:02:56;;;;;;;1.10;1.10;;;17.50;83.50;;;;;;4224865;27;20108;-62
2022/11/12 12:06:15;;;;;;;0.20;0.20;;;17.50;83.40;;;;;;4241340;27;20054;-61
2022/11/12 12:09:26;;;;;;;1.00;1.00;;;17.50;83.20;;;;;;4256297;27;20049;-61
2022/11/12 12:12:46;;;;;;;1.25;1.25;;;17.50;85.40;;;;;;4258751;27;20098;-61
2022/11/12 12:16:00;;;;;;;0.93;0.93;;;17.60;85.90;;;;;;4245346;27;20054;-61
2022/11/12 12:19:07;;;;;;;0.30;0.30;;;17.70;85.40;;;;;;4241432;27;20359;-61
2022/11/12 12:22:14;;;;;;;4.97;4.60;;;17.80;85.20;;;;;;4238244;27;20111;-60
2022/11/12 12:25:18;;;;;;;3.13;2.92;;;17.80;85.30;;;;;;4241958;27;20073;-61
2022/11/12 12:28:26;;;;;;;0.22;0.22;;;17.90;85.40;;;;;;4225048;27;20051;-60
2022/11/12 12:31:32;;;;;;;1.30;1.23;;;17.90;85.20;;;;;;4223663;28;20475;-60
2022/11/12 12:34:35;;;;;;;0.08;0.08;;;18.00;85.30;;;;;;4224893;27;20070;-60
2022/11/12 12:37:40;;;;;;;1.55;1.55;;;18.00;85.50;;;;;;4224883;27;20096;-60
2022/11/12 12:40:46;;;;;;;1.75;1.55;;;17.90;85.60;;;;;;4223061;28;20091;-62
2022/11/12 12:43:48;;;;;;;28.88;2.53;;;17.80;86.00;;;;;;4231419;27;20076;-63
2022/11/12 12:46:55;;;;;;;1.23;1.23;;;17.70;86.50;;;;;;4240383;28;20099;-63
2022/11/12 12:49:58;;;;;;;2.55;2.28;;;17.70;87.10;;;;;;4224932;28;20082;-60
2022/11/12 12:53:06;;;;;;;0.47;0.47;;;17.60;87.40;;;;;;4224395;28;20628;-60
2022/11/12 12:56:07;;;;;;;2.55;1.60;;;17.60;87.70;;;;;;4207547;28;20054;-60
2022/11/12 12:59:19;;;;;;;0.63;0.63;;;17.60;87.80;;;;;;4208471;27;20051;-60
2022/11/12 13:02:22;;;;;;;0.32;0.32;;;17.50;88.10;;;;;;4227747;27;20050;-60
2022/11/12 13:05:29;;;;;;;1.05;1.00;;;17.40;88.40;;;;;;4258874;27;20054;-60
2022/11/12 13:08:36;;;;;;;0.28;0.28;;;17.40;88.60;;;;;;4259058;27;20074;-59
2022/11/12 13:15:14;;;;;;;0.45;0.45;;;17.30;88.90;;;;;;4249370;27;20058;-60
2022/11/12 13:18:59;;;;;;;0.35;0.35;;;17.20;89.10;;;;;;4239750;28;20050;-61
2022/11/12 13:22:43;;;;;;;1.33;1.05;;;17.20;89.40;;;;;;4241000;27;20160;-60
2022/11/12 13:25:44;;;;;;;0.88;0.88;;;17.10;89.70;;;;;;4175271;28;20079;-61
2022/11/12 13:29:17;;;;;;;2.93;2.70;;;17.00;89.90;;;;;;4227681;27;20135;-59
2022/11/12 13:32:32;;;;;;;0.10;0.10;;;17.00;89.90;;;;;;4232064;27;20489;-60
2022/11/12 13:35:36;;;;;;;1.67;1.58;;;17.00;90.00;;;;;;4221515;28;20054;-60
2022/11/12 13:38:37;;;;;;;5.38;1.75;;;17.00;90.00;;;;;;4244799;27;20096;-60
2022/11/12 13:45:00;;;;;;;1.02;1.02;;;17.00;90.00;;;;;;4253848;27;20166;-60
2022/11/12 13:47:59;;;;;;;4.03;1.00;;;17.00;90.00;;;;;;4261510;27;20104;-60
2022/11/12 13:51:03;;;;;;;0.22;0.22;;;17.00;90.10;;;;;;4250791;27;20054;-61
2022/11/12 13:54:23;;;;;;;4.13;3.83;;;16.90;90.10;;;;;;4235225;27;20745;-60
2022/11/12 13:57:28;;;;;;;0.63;0.63;;;16.90;90.20;;;;;;4241710;27;20093;-61
2022/11/12 14:00:28;;;;;;;0.28;0.28;;;16.80;90.20;;;;;;4244333;27;20058;-61
2022/11/12 14:03:31;;;;;;;0.85;0.85;;;16.80;90.30;;;;;;4243469;27;20046;-60
2022/11/12 14:06:37;;;;;;;1.60;1.60;;;16.80;90.50;;;;;;4260984;27;20053;-60
2022/11/12 14:09:50;;;;;;;0.68;0.68;;;16.70;90.50;;;;;;4252815;27;20053;-60
2022/11/12 14:13:10;;;;;;;0.85;0.85;;;16.70;90.60;;;;;;4227045;27;20527;-61
2022/11/12 14:16:22;;;;;;;4.28;3.20;;;16.60;90.70;;;;;;4234856;27;20068;-60
2022/11/12 14:20:13;;;;;;;1.00;1.00;;;16.60;90.80;;;;;;4261162;27;20062;-60
2022/11/12 14:23:15;;;;;;;0.32;0.32;;;16.50;90.90;;;;;;4171762;28;20428;-61
2022/11/12 14:26:35;;;;;;;0.88;0.60;;;16.50;90.90;;;;;;4174195;28;20059;-60
2022/11/12 14:29:36;;;;;;;0.30;0.30;;;16.40;91.00;;;;;;4252049;27;20643;-60
2022/11/12 14:32:44;;;;;;;0.75;0.75;;;16.40;91.10;;;;;;4248888;27;20511;-65
2022/11/12 14:35:44;;;;;;;1.35;1.17;;;16.40;91.20;;;;;;4225252;28;20194;-62
2022/11/12 14:38:46;;;;;;;1.17;1.08;;;16.30;91.20;;;;;;4242824;27;20054;-60
2022/11/12 14:41:48;;;;;;;0.98;0.98;;;16.30;91.30;;;;;;4242166;27;20062;-60
2022/11/12 14:44:48;;;;;;;1.75;1.67;;;16.30;91.40;;;;;;4260595;27;20434;-60
2022/11/12 14:47:51;;;;;;;3.03;1.88;;;16.20;91.40;;;;;;4260613;27;20501;-60
2022/11/12 14:50:54;;;;;;;0.28;0.28;;;16.20;91.50;;;;;;4258085;27;20077;-60
2022/11/12 14:53:57;;;;;;;3.63;1.85;;;16.20;91.60;;;;;;4226682;27;20470;-60
2022/11/12 14:56:59;;;;;;;0.47;0.47;;;16.10;91.60;;;;;;4225967;28;20455;-60
2022/11/12 15:00:16;;;;;;;;;;;16.10;91.70;;;;;;4226557;28;20063;-60
2022/11/12 15:03:19;;;;;;;0.45;0.45;;;16.10;91.70;;;;;;4226120;27;20294;-60
2022/11/12 15:06:27;;;;;;;0.95;0.95;;;16.10;92.10;;;;;;4226260;27;20055;-60
2022/11/12 15:09:35;;;;;;;0.80;0.80;;;16.10;92.20;;;;;;4225570;27;20078;-60
2022/11/12 15:12:35;;;;;;;8.18;2.70;;;16.00;92.30;;;;;;4257302;27;20078;-60
2022/11/12 15:15:38;;;;;;;6.50;2.70;;;16.00;92.30;;;;;;4259690;27;20069;-60
2022/11/12 15:18:39;;;;;;;1.95;1.85;;;16.00;92.30;;;;;;4259686;27;20093;-60
2022/11/12 15:21:44;;;;;;;;;;;16.00;92.30;;;;;;4218841;28;20105;-60
2022/11/12 15:24:44;;;;;;;1.73;1.63;;;16.00;92.30;;;;;;4229601;27;20007;-60
2022/11/12 15:27:44;;;;;;;1.85;1.75;;;15.90;92.40;;;;;;4247171;27;20450;-60
2022/11/12 15:31:00;;;;;;;1.45;1.40;;;15.90;92.50;;;;;;4259649;27;20054;-61
2022/11/12 15:34:27;;;;;;;2.92;2.72;;;15.90;92.60;;;;;;4243147;27;20058;-61
2022/11/12 15:37:32;;;;;;;2.45;2.35;;;15.90;92.70;;;;;;4241783;27;20054;-60
2022/11/12 15:40:33;;;;;;;0.08;0.08;;;15.80;92.80;;;;;;4230690;27;20046;-60
2022/11/12 15:43:35;;;;;;;2.10;1.90;;;15.90;93.10;;;;;;4225346;28;20406;-61
2022/11/12 15:46:37;;;;;;;9.23;3.67;;;16.00;93.20;;;;;;4241827;27;20107;-60
2022/11/12 15:49:50;;;;;;;0.82;0.82;;;16.10;93.00;;;;;;4242438;27;20058;-60
2022/11/12 15:52:50;;;;;;;8.30;3.42;;;16.20;92.70;;;;;;4208634;28;20541;-60
2022/11/12 15:55:50;;;;;;;1.60;1.25;;;16.30;92.60;;;;;;4225420;28;20099;-60
2022/11/12 15:58:49;;;;;;;5.13;1.85;;;16.40;92.50;;;;;;4225534;27;20054;-60
2022/11/12 16:01:50;;;;;;;2.90;1.95;;;16.40;92.50;;;;;;4253280;27;20062;-61
2022/11/12 16:04:49;;;;;;;1.17;1.08;;;16.50;92.40;;;;;;4259560;27;20102;-61
2022/11/12 16:07:49;;;;;;;14.90;5.47;;;16.60;92.40;;;;;;4259375;27;20130;-60
2022/11/12 16:10:49;;;;;;;4.35;1.67;;;16.80;92.10;;;;;;4253506;27;20069;-60
2022/11/12 16:13:48;;;;;;;0.70;0.70;;;16.90;91.80;;;;;;4241432;27;20058;-60
2022/11/12 16:16:48;;;;;;;6.18;2.90;;;16.90;91.60;;;;;;4240485;27;20398;-60
2022/11/12 16:19:48;;;;;;;0.47;0.47;;;17.00;91.50;;;;;;4241495;27;20099;-60
2022/11/12 16:22:48;;;;;;;1.15;1.15;;;17.00;91.50;;;;;;4225350;27;20098;-61
2022/11/12 16:25:47;;;;;;;8.93;1.92;;;17.00;91.50;;;;;;4224658;27;20074;-60
2022/11/12 16:28:47;;;;;;;1.80;1.80;;;17.00;91.50;;;;;;4224820;27;20046;-60